Time;durP1;ratioP1;P1;durP2;ratioP2;P2;SDS_P1;SDS_P2;PMS_P1;PMS_P2;Temp;Humidity;BMP_temperature;BMP_pressure;BME280_temperature;BME280_humidity;BME280_pressure;Samples;Min_cycle;Max_cycle;Signal;HPM_P1;HPM_P2
2021/10/25 00:02:31;;;;;;;2.00;1.88;;;;;;;10.98;69.27;101918.00;6365662;28;20418;-72
2021/10/25 00:05:36;;;;;;;2.42;1.83;;;;;;;10.93;70.34;101898.63;6366981;28;20189;-72
2021/10/25 00:08:41;;;;;;;1.80;1.70;;;;;;;10.92;69.85;101905.13;6366545;28;20186;-72
2021/10/25 00:11:45;;;;;;;1.80;1.67;;;;;;;10.83;69.66;101906.28;6366574;28;20183;-72
2021/10/25 00:14:50;;;;;;;2.17;1.90;;;;;;;10.80;70.54;101903.94;6365483;28;20278;-72
2021/10/25 00:17:55;;;;;;;2.42;1.90;;;;;;;10.77;70.50;101901.59;6365366;28;20426;-72
2021/10/25 00:20:59;;;;;;;1.98;1.88;;;;;;;10.85;70.03;101904.22;6366205;28;20241;-72
2021/10/25 00:24:05;;;;;;;4.00;1.98;;;;;;;10.76;69.89;101899.88;6366598;28;20186;-73
2021/10/25 00:27:12;;;;;;;4.88;1.73;;;;;;;10.78;69.78;101892.38;6366446;28;20186;-72
2021/10/25 00:30:18;;;;;;;4.50;2.08;;;;;;;10.78;70.03;101897.84;6366477;28;20186;-73
2021/10/25 00:33:23;;;;;;;5.50;1.83;;;;;;;10.66;70.61;101888.44;6346919;28;20198;-72
2021/10/25 00:36:31;;;;;;;1.83;1.75;;;;;;;10.72;71.43;101898.59;6365285;28;20245;-72
2021/10/25 00:39:37;;;;;;;2.10;1.83;;;;;;;10.76;70.26;101894.44;6366021;28;20216;-73
2021/10/25 00:42:44;;;;;;;5.20;1.88;;;;;;;10.72;70.04;101887.69;6353711;28;20234;-72
2021/10/25 00:45:50;;;;;;;2.13;1.92;;;;;;;10.65;70.44;101890.34;6321077;28;20449;-73
2021/10/25 00:48:54;;;;;;;3.83;2.00;;;;;;;10.70;69.73;101892.50;6339568;28;20187;-72
2021/10/25 00:51:59;;;;;;;4.43;1.67;;;;;;;10.74;70.39;101896.50;6321430;28;20477;-73
2021/10/25 00:55:05;;;;;;;2.00;1.90;;;;;;;10.64;69.96;101901.44;6340230;28;20183;-73
2021/10/25 00:58:12;;;;;;;2.47;1.50;;;;;;;10.68;69.85;101892.66;6339972;28;20183;-72
2021/10/25 01:01:17;;;;;;;2.92;1.65;;;;;;;10.59;70.15;101892.97;6321295;28;20218;-72
2021/10/25 01:04:21;;;;;;;4.57;2.33;;;;;;;10.55;70.11;101892.50;6321805;28;20234;-73
2021/10/25 01:07:27;;;;;;;3.80;1.95;;;;;;;10.50;70.22;101883.22;6339958;28;20183;-73
2021/10/25 01:10:34;;;;;;;1.73;1.73;;;;;;;10.51;70.36;101884.91;6321302;28;20203;-72
2021/10/25 01:13:39;;;;;;;2.33;1.90;;;;;;;10.54;70.23;101887.25;6321581;28;20218;-73
2021/10/25 01:16:43;;;;;;;1.98;1.70;;;;;;;10.51;70.33;101890.34;6339591;28;20219;-73
2021/10/25 01:19:54;;;;;;;1.75;1.70;;;;;;;10.53;70.51;101888.28;6339770;28;20215;-73
2021/10/25 01:23:00;;;;;;;2.58;1.63;;;;;;;10.40;71.02;101882.69;6321165;28;20265;-74
2021/10/25 01:26:05;;;;;;;2.03;1.92;;;;;;;10.42;70.89;101889.63;6321367;28;20205;-72
2021/10/25 01:29:10;;;;;;;2.30;2.00;;;;;;;10.31;71.42;101881.06;6321320;28;20202;-73
2021/10/25 01:32:15;;;;;;;2.38;1.98;;;;;;;10.35;71.20;101885.13;6320853;28;20328;-72
2021/10/25 01:35:21;;;;;;;2.75;1.77;;;;;;;10.40;70.88;101882.69;6320574;28;20198;-73
2021/10/25 01:38:26;;;;;;;4.40;1.98;;;;;;;10.41;71.33;101877.03;6320173;28;20229;-73
2021/10/25 01:41:31;;;;;;;3.17;1.63;;;;;;;10.37;71.66;101883.06;6320190;28;20229;-73
2021/10/25 01:44:39;;;;;;;4.60;1.65;;;;;;;10.30;72.04;101873.91;6342922;28;20544;-72
2021/10/25 01:47:46;;;;;;;6.18;1.83;;;;;;;10.22;71.75;101874.06;6345121;28;20221;-71
2021/10/25 01:50:52;;;;;;;2.00;1.80;;;;;;;10.18;71.94;101872.72;6345048;28;20269;-72
2021/10/25 01:53:56;;;;;;;2.85;1.80;;;;;;;10.19;72.20;101879.88;6364271;28;20190;-71
2021/10/25 01:57:00;;;;;;;4.28;1.83;;;;;;;10.20;72.02;101876.09;6345838;28;20205;-72
2021/10/25 02:00:06;;;;;;;3.38;1.92;;;;;;;10.09;72.23;101874.69;6345265;28;20217;-72
2021/10/25 02:03:16;;;;;;;4.80;1.88;;;;;;;10.04;73.11;101872.50;6362736;28;20380;-72
2021/10/25 02:06:26;;;;;;;2.20;1.48;;;;;;;9.91;73.85;101866.84;6345643;28;20198;-72
2021/10/25 02:09:30;;;;;;;1.95;1.75;;;;;;;10.01;73.34;101872.06;6344316;28;20564;-72
2021/10/25 02:12:35;;;;;;;2.00;1.90;;;;;;;9.95;73.11;101879.09;6344800;28;20220;-72
2021/10/25 02:15:40;;;;;;;5.95;2.05;;;;;;;9.82;73.64;101878.91;6379231;27;20198;-73
2021/10/25 02:18:47;;;;;;;1.98;1.80;;;;;;;9.91;73.57;101871.50;6344135;28;20197;-73
2021/10/25 02:21:54;;;;;;;2.40;2.20;;;;;;;9.84;74.08;101860.47;6344994;28;20221;-73
2021/10/25 02:24:58;;;;;;;3.85;1.60;;;;;;;9.77;73.88;101859.53;6345154;28;20261;-73
2021/10/25 02:28:04;;;;;;;7.22;1.88;;;;;;;9.70;74.76;101858.59;6344402;28;20201;-73
2021/10/25 02:31:11;;;;;;;2.30;1.80;;;;;;;9.64;74.39;101858.47;6345115;28;20202;-73
2021/10/25 02:34:17;;;;;;;3.40;1.70;;;;;;;9.62;75.07;101849.66;6344040;28;20198;-73
2021/10/25 02:37:24;;;;;;;3.70;2.08;;;;;;;9.37;75.92;101844.44;6362244;28;20213;-72
2021/10/25 02:40:32;;;;;;;1.67;1.58;;;;;;;9.39;75.92;101844.28;6344340;28;20288;-73
2021/10/25 02:43:37;;;;;;;8.15;1.92;;;;;;;9.43;75.59;101834.69;6363571;28;20233;-73
2021/10/25 02:46:42;;;;;;;1.80;1.70;;;;;;;9.33;75.86;101834.09;6344667;28;20243;-72
2021/10/25 02:49:48;;;;;;;6.03;1.80;;;;;;;9.35;75.57;101842.94;6343853;28;20208;-73
2021/10/25 02:52:54;;;;;;;2.53;1.98;;;;;;;9.18;76.50;101831.34;6343703;28;20479;-72
2021/10/25 02:56:01;;;;;;;3.10;2.40;;;;;;;9.22;76.30;101831.81;6344638;28;20277;-73
2021/10/25 02:59:08;;;;;;;1.77;1.77;;;;;;;9.04;77.17;101832.16;6344164;28;20228;-73
2021/10/25 03:02:13;;;;;;;4.43;1.70;;;;;;;9.04;76.60;101828.59;6344017;28;20437;-72
2021/10/25 03:05:17;;;;;;;3.30;1.83;;;;;;;9.10;76.50;101838.75;6344197;28;20243;-73
2021/10/25 03:08:23;;;;;;;2.70;1.80;;;;;;;9.05;76.82;101831.13;6343798;28;20205;-73
2021/10/25 03:11:32;;;;;;;4.30;2.58;;;;;;;8.98;77.01;101834.78;6344901;28;20202;-73
2021/10/25 03:14:36;;;;;;;5.40;2.03;;;;;;;8.97;76.79;101833.91;6362437;28;20190;-73
2021/10/25 03:17:40;;;;;;;2.80;2.00;;;;;;;8.92;77.10;101835.47;6343578;28;20198;-73
2021/10/25 03:20:52;;;;;;;1.95;1.85;;;;;;;8.86;76.63;101831.59;6343352;28;20593;-73
2021/10/25 03:24:00;;;;;;;7.78;1.88;;;;;;;8.77;77.75;101828.13;6343228;28;20265;-73
2021/10/25 03:27:06;;;;;;;4.20;2.13;;;;;;;8.76;77.79;101831.00;6343449;28;20201;-73
2021/10/25 03:30:12;;;;;;;3.67;2.22;;;;;;;8.78;77.03;101821.63;6361304;28;20227;-73
2021/10/25 03:33:21;;;;;;;2.40;2.00;;;;;;;8.71;77.68;101804.34;6345051;28;20190;-73
2021/10/25 03:36:47;;;;;;;3.33;1.80;;;;;;;8.59;78.05;101805.81;6343593;28;20198;-73
2021/10/25 03:39:53;;;;;;;4.22;2.00;;;;;;;8.61;77.01;101803.75;6362708;28;20261;-73
2021/10/25 03:42:58;;;;;;;3.35;2.13;;;;;;;8.71;76.97;101801.63;6343233;28;20267;-73
2021/10/25 03:46:08;;;;;;;1.88;1.83;;;;;;;8.56;78.06;101798.00;6343902;28;20219;-73
2021/10/25 03:49:20;;;;;;;3.38;1.90;;;;;;;8.50;77.78;101797.91;6343579;28;20265;-73
2021/10/25 03:52:49;;;;;;;4.47;2.38;;;;;;;8.56;78.20;101797.16;6361865;28;20202;-73
2021/10/25 03:56:00;;;;;;;5.75;2.22;;;;;;;8.43;77.58;101786.88;6343020;28;20233;-73
2021/10/25 04:13:28;;;;;;;2.05;1.95;;;;;;;8.13;79.37;101779.56;6343818;28;20209;-73
2021/10/25 04:27:25;;;;;;;2.28;2.17;;;;;;;7.96;79.75;101767.09;6273862;28;20479;-73
2021/10/25 04:30:31;;;;;;;6.75;2.10;;;;;;;7.87;80.39;101762.69;6347412;28;20265;-73
2021/10/25 04:33:37;;;;;;;2.65;2.10;;;;;;;7.86;80.02;101761.00;6347037;28;20239;-73
2021/10/25 04:36:57;;;;;;;4.82;2.08;;;;;;;7.87;80.53;101759.97;6347997;28;20236;-73
2021/10/25 04:40:18;;;;;;;4.80;2.20;;;;;;;7.90;79.97;101756.91;6346930;28;20354;-73
2021/10/25 04:43:23;;;;;;;4.80;2.00;;;;;;;7.83;80.10;101756.75;6346398;28;20259;-73
2021/10/25 04:46:28;;;;;;;3.20;2.35;;;;;;;7.75;80.30;101753.25;6382464;27;20235;-73
2021/10/25 04:49:32;;;;;;;4.38;1.85;;;;;;;7.75;80.54;101747.81;6372784;27;20269;-73
2021/10/25 04:52:57;;;;;;;4.57;2.20;;;;;;;7.67;80.58;101750.56;6391783;27;20208;-74
2021/10/25 04:56:06;;;;;;;2.60;2.40;;;;;;;7.69;80.56;101752.09;6372084;27;20198;-73
2021/10/25 04:59:14;;;;;;;10.65;2.78;;;;;;;7.69;80.98;101743.06;6372831;27;20198;-73
2021/10/25 05:02:20;;;;;;;5.75;2.20;;;;;;;7.68;80.55;101741.41;6390362;27;20246;-73
2021/10/25 05:05:27;;;;;;;6.13;2.42;;;;;;;7.71;80.71;101735.59;6372529;27;20229;-73
2021/10/25 05:08:31;;;;;;;6.00;2.35;;;;;;;7.70;80.38;101733.91;6372005;27;20198;-73
2021/10/25 05:11:38;;;;;;;2.30;2.20;;;;;;;7.62;80.93;101726.66;6390623;27;20185;-73
2021/10/25 05:14:44;;;;;;;3.08;2.20;;;;;;;7.54;80.87;101730.25;6371150;27;20201;-73
2021/10/25 05:17:50;;;;;;;2.55;2.35;;;;;;;7.58;80.54;101726.16;6372188;27;20205;-73
2021/10/25 05:20:55;;;;;;;5.68;2.80;;;;;;;7.52;81.26;101729.56;6371272;27;20515;-74
2021/10/25 05:23:59;;;;;;;8.00;3.05;;;;;;;7.62;80.23;101731.22;6372121;27;20289;-73
2021/10/25 05:27:07;;;;;;;4.57;2.53;;;;;;;7.62;80.21;101728.50;6371732;27;20197;-73
2021/10/25 05:30:12;;;;;;;4.47;2.25;;;;;;;7.43;80.56;101727.91;6390076;27;20189;-73
2021/10/25 05:33:18;;;;;;;6.03;2.50;;;;;;;7.43;80.79;101716.19;6371353;27;20201;-73
2021/10/25 05:36:23;;;;;;;4.40;2.50;;;;;;;7.44;80.71;101718.75;6388981;27;20488;-73
2021/10/25 05:39:29;;;;;;;5.97;2.60;;;;;;;7.48;80.45;101717.38;6371692;27;20197;-73
2021/10/25 05:42:34;;;;;;;6.67;2.43;;;;;;;7.48;80.84;101713.81;6371045;27;20282;-73
2021/10/25 05:45:38;;;;;;;6.97;2.50;;;;;;;7.49;80.28;101716.34;6389840;27;20182;-73
2021/10/25 05:48:44;;;;;;;2.65;2.50;;;;;;;7.49;80.37;101715.50;6370686;27;20384;-73
2021/10/25 05:51:49;;;;;;;3.13;2.60;;;;;;;7.51;80.59;101713.44;6370269;27;20205;-73
2021/10/25 05:54:54;;;;;;;6.10;2.77;;;;;;;7.56;80.09;101709.19;6404625;27;20197;-73
2021/10/25 05:58:01;;;;;;;4.22;2.42;;;;;;;7.53;79.82;101711.41;6389568;27;20188;-73
2021/10/25 06:01:11;;;;;;;12.73;2.97;;;;;;;7.50;79.46;101712.59;6370563;27;20501;-73
2021/10/25 06:04:28;;;;;;;3.28;2.85;;;;;;;7.40;80.41;101711.97;6370826;27;20225;-73
2021/10/25 06:07:55;;;;;;;6.47;2.70;;;;;;;7.43;80.36;101711.63;6370429;27;20438;-73
2021/10/25 06:10:59;;;;;;;4.78;2.72;;;;;;;7.39;80.47;101702.16;6370201;27;20459;-73
2021/10/25 06:14:06;;;;;;;4.75;2.45;;;;;;;7.60;78.88;101706.94;6370642;27;20208;-73
2021/10/25 06:17:26;;;;;;;10.83;2.87;;;;;;;7.43;79.97;101700.75;6371131;27;20197;-73
2021/10/25 06:20:31;;;;;;;5.07;2.80;;;;;;;7.38;80.01;101697.72;6389435;27;20182;-73
2021/10/25 06:23:37;;;;;;;6.10;2.73;;;;;;;7.36;79.88;101696.22;6369722;27;20224;-73
2021/10/25 06:26:47;;;;;;;2.83;2.63;;;;;;;7.32;80.45;101695.69;6369567;27;20201;-73
2021/10/25 06:29:51;;;;;;;9.20;2.73;;;;;;;7.46;79.59;101689.56;6369503;27;20316;-73
2021/10/25 06:32:56;;;;;;;2.77;2.67;;;;;;;7.33;80.59;101691.97;6403407;27;20208;-73
2021/10/25 06:36:19;;;;;;;8.60;3.27;;;;;;;7.38;80.19;101692.28;6369401;27;20314;-73
2021/10/25 06:39:36;;;;;;;3.73;2.70;;;;;;;7.48;79.56;101690.22;6369531;27;20552;-73
2021/10/25 06:42:40;;;;;;;5.03;2.70;;;;;;;7.47;79.16;101693.94;6402852;27;20418;-73
2021/10/25 06:45:50;;;;;;;5.30;3.17;;;;;;;7.42;79.72;101688.19;6369618;27;20567;-73
2021/10/25 06:48:55;;;;;;;3.10;2.60;;;;;;;7.51;79.90;101686.28;6369279;27;20386;-73
2021/10/25 06:52:01;;;;;;;3.47;2.90;;;;;;;7.61;77.95;101669.78;6369332;27;20287;-73
2021/10/25 06:55:07;;;;;;;8.87;3.10;;;;;;;7.60;79.09;101673.53;6368763;27;20204;-73
2021/10/25 06:58:14;;;;;;;4.97;2.72;;;;;;;7.61;78.56;101676.06;6403071;27;20196;-73
2021/10/25 07:01:22;;;;;;;5.53;2.67;;;;;;;7.58;79.10;101685.41;6403909;27;20197;-73
2021/10/25 07:04:28;;;;;;;8.25;2.83;;;;;;;7.63;78.92;101700.34;6402737;27;20256;-73
2021/10/25 07:07:35;;;;;;;8.65;3.17;;;;;;;7.76;78.77;101689.72;6369952;28;20197;-73
2021/10/25 07:10:42;;;;;;;4.53;2.80;;;;;;;7.70;77.91;101685.03;6368797;28;20228;-73
2021/10/25 07:13:54;;;;;;;3.67;2.70;;;;;;;7.71;78.04;101671.25;6369273;28;20237;-73
2021/10/25 07:17:15;;;;;;;4.90;3.20;;;;;;;7.77;78.17;101669.69;6404010;27;20203;-73
2021/10/25 07:27:38;;;;;;;6.82;3.00;;;;;;;7.92;77.26;101678.78;6368496;28;20482;-72
2021/10/25 08:08:46;;;;;;;4.43;2.88;;;;;;;8.30;78.16;101639.78;6348203;28;20202;-72
2021/10/25 08:11:54;;;;;;;3.55;2.38;;;;;;;8.37;77.64;101629.88;6348516;28;20197;-72
2021/10/25 08:15:10;;;;;;;4.45;2.55;;;;;;;8.37;78.21;101645.34;6347712;28;20207;-73
2021/10/25 08:18:33;;;;;;;6.03;2.40;;;;;;;8.49;77.75;101639.28;6347863;28;20469;-72
2021/10/25 08:21:37;;;;;;;3.50;2.55;;;;;;;8.49;78.29;101638.44;6347440;28;20274;-72
2021/10/25 08:24:43;;;;;;;2.42;2.30;;;;;;;8.60;77.84;101640.72;6348312;28;20224;-73
2021/10/25 08:27:55;;;;;;;3.72;2.85;;;;;;;8.62;77.78;101634.06;6347987;28;20198;-72
2021/10/25 08:31:01;;;;;;;5.78;2.67;;;;;;;8.63;78.13;101637.59;6346809;28;20205;-72
2021/10/25 08:34:35;;;;;;;6.82;2.85;;;;;;;8.68;77.52;101625.16;6347619;28;20393;-72
2021/10/25 08:41:39;;;;;;;4.22;3.00;;;;;;;8.78;77.27;101623.00;6293746;28;20201;-71
2021/10/25 08:44:54;;;;;;;4.40;2.53;;;;;;;8.82;76.97;101624.34;6346649;28;20234;-72
2021/10/25 08:48:01;;;;;;;4.95;2.80;;;;;;;8.89;76.76;101618.13;6346411;28;20198;-71
2021/10/25 08:51:06;;;;;;;5.63;2.80;;;;;;;8.81;77.34;101606.31;6347225;28;20198;-72
2021/10/25 08:54:10;;;;;;;6.72;2.55;;;;;;;8.92;76.79;101615.88;6364858;28;20217;-72
2021/10/25 08:57:14;;;;;;;2.95;2.50;;;;;;;8.95;77.15;101609.22;6346608;28;20229;-71
2021/10/25 09:00:20;;;;;;;4.88;2.80;;;;;;;8.93;76.66;101605.84;6346771;28;20201;-72
2021/10/25 09:03:46;;;;;;;7.63;3.13;;;;;;;8.95;75.97;101603.78;6350475;28;20245;-72
2021/10/25 09:06:54;;;;;;;5.53;3.08;;;;;;;9.00;75.55;101604.91;6345384;28;20204;-72
2021/10/25 09:10:06;;;;;;;4.97;3.63;;;;;;;9.06;75.80;101608.75;6346517;28;20229;-72
2021/10/25 09:13:16;;;;;;;8.45;3.30;;;;;;;9.14;75.11;101597.78;6346877;28;20224;-72
2021/10/25 09:16:23;;;;;;;4.28;2.78;;;;;;;9.18;75.25;101599.06;6346043;28;20305;-72
2021/10/25 09:19:48;;;;;;;3.10;2.90;;;;;;;9.16;75.10;101612.03;6365128;28;20182;-72
2021/10/25 09:23:08;;;;;;;2.95;2.70;;;;;;;9.30;74.84;101597.53;6346371;28;20377;-71
2021/10/25 09:26:18;;;;;;;5.72;2.90;;;;;;;9.30;74.53;101605.72;6345637;28;20239;-72
2021/10/25 09:29:25;;;;;;;5.60;2.65;;;;;;;9.40;73.69;101600.81;6345779;28;20229;-72
2021/10/25 09:32:34;;;;;;;7.93;2.63;;;;;;;9.26;75.03;101597.09;6345777;28;20474;-72
2021/10/25 09:36:02;;;;;;;7.30;2.60;;;;;;;9.23;75.49;101593.91;6364455;28;20265;-73
2021/10/25 09:39:19;;;;;;;3.35;2.70;;;;;;;9.27;75.11;101595.22;6345073;28;20221;-72
2021/10/25 09:46:07;;;;;;;4.10;2.90;;;;;;;9.37;74.12;101584.88;6360502;27;20262;-72
2021/10/25 09:49:26;;;;;;;3.40;2.70;;;;;;;9.47;73.24;101579.97;6370414;27;20228;-72
2021/10/25 09:52:35;;;;;;;7.50;2.47;;;;;;;9.48;72.99;101570.75;6371647;27;20314;-73
2021/10/25 09:55:46;;;;;;;3.08;2.60;;;;;;;9.53;72.84;101572.91;6370394;27;20201;-73
2021/10/25 09:59:07;;;;;;;6.55;2.45;;;;;;;9.53;73.42;101570.19;6370497;27;20415;-72
2021/10/25 10:02:14;;;;;;;3.60;2.50;;;;;;;9.56;72.95;101567.91;6404504;27;20204;-73
2021/10/25 10:05:24;;;;;;;5.20;2.70;;;;;;;9.55;71.97;101571.69;6370147;27;20284;-73
2021/10/25 10:08:34;;;;;;;10.15;3.10;;;;;;;9.53;71.88;101562.84;6369817;27;20280;-73
2021/10/25 10:11:48;;;;;;;7.78;3.03;;;;;;;9.59;71.73;101567.53;6369485;27;20238;-73
2021/10/25 10:14:58;;;;;;;6.95;3.03;;;;;;;9.58;71.73;101563.09;6370240;27;20357;-72
2021/10/25 10:18:18;;;;;;;6.57;2.50;;;;;;;9.46;72.11;101561.94;6371579;27;20244;-73
2021/10/25 10:21:43;;;;;;;3.25;2.50;;;;;;;9.48;72.16;101570.75;6388061;27;20219;-72
2021/10/25 10:24:58;;;;;;;5.45;2.78;;;;;;;9.53;72.53;101565.56;6370655;27;20352;-72
2021/10/25 10:28:05;;;;;;;4.55;2.20;;;;;;;9.55;72.03;101568.97;6370526;27;20274;-72
2021/10/25 10:31:13;;;;;;;2.38;2.22;;;;;;;9.62;71.66;101556.25;6370019;27;20204;-72
2021/10/25 10:34:26;;;;;;;4.90;2.58;;;;;;;9.66;71.31;101551.22;6370367;27;20268;-72
2021/10/25 10:37:33;;;;;;;3.63;3.30;;;;;;;9.73;71.00;101552.97;6368870;27;20251;-72
2021/10/25 10:40:41;;;;;;;8.65;3.38;;;;;;;9.82;71.16;101557.28;6369053;27;20197;-73
2021/10/25 10:44:16;;;;;;;10.85;2.65;;;;;;;9.92;71.06;101555.06;6384810;27;20232;-72
2021/10/25 10:47:20;;;;;;;4.35;3.25;;;;;;;9.85;71.22;101546.00;6369468;27;20228;-73
2021/10/25 10:50:32;;;;;;;5.10;2.80;;;;;;;9.93;70.88;101542.28;6387303;27;20477;-73
2021/10/25 10:53:40;;;;;;;4.13;2.25;;;;;;;9.92;71.42;101541.44;6388638;27;20204;-73
2021/10/25 10:57:04;;;;;;;5.35;2.42;;;;;;;9.94;71.35;101539.34;6370075;27;20201;-73
2021/10/25 11:00:10;;;;;;;2.78;2.55;;;;;;;9.92;72.09;101546.03;6387282;27;20377;-73
2021/10/25 11:03:23;;;;;;;4.07;2.78;;;;;;;9.88;71.36;101545.63;6387877;27;20182;-73
2021/10/25 11:06:32;;;;;;;8.40;2.88;;;;;;;9.85;71.01;101551.44;6387960;27;20246;-74
2021/10/25 11:09:36;;;;;;;6.95;3.15;;;;;;;9.86;70.30;101538.66;6388482;28;20189;-73
2021/10/25 11:13:08;;;;;;;4.50;2.97;;;;;;;10.00;69.50;101543.19;6388630;28;20181;-73
2021/10/25 11:16:18;;;;;;;2.83;2.63;;;;;;;9.90;70.30;101532.63;6369824;28;20254;-73
2021/10/25 11:19:26;;;;;;;4.97;2.90;;;;;;;9.88;69.98;101529.25;6388462;28;20249;-73
2021/10/25 11:22:32;;;;;;;3.20;2.90;;;;;;;9.86;70.05;101523.13;6387454;28;20244;-73
2021/10/25 11:25:42;;;;;;;3.72;3.17;;;;;;;9.93;69.45;101534.97;6386968;28;20540;-73
2021/10/25 11:29:04;;;;;;;4.32;3.05;;;;;;;9.95;70.00;101521.97;6387600;27;20344;-73
2021/10/25 11:32:12;;;;;;;6.70;3.30;;;;;;;9.98;68.64;101518.88;6375130;27;20291;-76
2021/10/25 11:35:18;;;;;;;7.07;3.25;;;;;;;9.94;68.73;101512.09;6393488;27;20221;-73
2021/10/25 11:38:22;;;;;;;5.28;3.20;;;;;;;9.96;68.26;101515.47;6393090;27;20295;-73
2021/10/25 11:41:27;;;;;;;7.22;3.45;;;;;;;10.01;68.09;101512.16;6390948;27;20193;-73
2021/10/25 11:44:34;;;;;;;3.53;3.28;;;;;;;9.86;68.80;101508.69;6360020;28;20226;-73
2021/10/25 11:47:41;;;;;;;5.28;3.33;;;;;;;9.85;67.81;101501.53;6366350;28;20406;-73
2021/10/25 11:51:06;;;;;;;7.03;3.30;;;;;;;9.87;67.24;101504.91;6366612;28;20183;-73
2021/10/25 11:54:10;;;;;;;5.28;3.30;;;;;;;9.90;66.94;101494.47;6366108;28;20356;-73
2021/10/25 11:57:16;;;;;;;5.35;3.30;;;;;;;9.99;67.40;101485.09;6366052;28;20413;-73
2021/10/25 12:00:24;;;;;;;7.20;3.53;;;;;;;10.11;67.35;101487.28;6367866;28;20214;-73
2021/10/25 12:03:43;;;;;;;5.55;2.95;;;;;;;10.06;67.66;101466.94;6364895;28;20209;-73
2021/10/25 12:07:03;;;;;;;3.53;3.22;;;;;;;9.88;67.44;101480.19;6364558;28;20245;-73
2021/10/25 12:10:09;;;;;;;3.97;3.60;;;;;;;9.92;66.82;101473.28;6367063;28;20183;-73
2021/10/25 12:13:15;;;;;;;3.45;3.15;;;;;;;10.10;66.38;101467.34;6366915;28;20182;-73
2021/10/25 12:16:21;;;;;;;5.57;3.30;;;;;;;10.11;65.86;101468.19;6366920;28;20193;-73
2021/10/25 12:19:27;;;;;;;7.40;3.40;;;;;;;10.06;66.37;101461.47;6366701;28;20189;-73
2021/10/25 12:22:31;;;;;;;3.72;3.35;;;;;;;10.09;66.09;101454.78;6365481;28;20473;-73
2021/10/25 12:25:36;;;;;;;7.55;3.22;;;;;;;10.02;66.23;101449.25;6366351;28;20205;-73
2021/10/25 12:28:40;;;;;;;5.82;3.15;;;;;;;10.16;65.16;101443.94;6365439;28;20424;-73
2021/10/25 12:31:49;;;;;;;4.00;3.60;;;;;;;10.07;65.63;101446.78;6366626;28;20183;-73
2021/10/25 12:34:55;;;;;;;3.60;3.30;;;;;;;10.11;65.74;101447.22;6364796;28;20572;-73
2021/10/25 12:38:00;;;;;;;7.25;3.42;;;;;;;9.94;66.82;101430.31;6364945;28;20492;-73
2021/10/25 12:41:06;;;;;;;5.78;3.30;;;;;;;9.99;66.15;101432.44;6363892;28;20197;-73
2021/10/25 12:44:23;;;;;;;3.20;3.05;;;;;;;9.84;67.23;101429.84;6384571;27;20266;-73
2021/10/25 12:47:33;;;;;;;5.65;3.40;;;;;;;9.84;67.23;101435.28;6391683;27;20210;-73
2021/10/25 12:50:40;;;;;;;3.30;3.20;;;;;;;9.93;67.28;101434.09;6390773;27;20219;-73
2021/10/25 12:53:46;;;;;;;4.18;3.60;;;;;;;9.84;65.67;101435.28;6390261;27;20213;-73
2021/10/25 12:56:51;;;;;;;7.15;3.17;;;;;;;9.90;66.05;101423.59;6391349;27;20217;-73
2021/10/25 13:00:05;;;;;;;6.20;3.42;;;;;;;9.94;66.02;101430.31;6391256;27;20181;-73
2021/10/25 13:03:15;;;;;;;3.38;3.08;;;;;;;10.00;65.91;101429.53;6391278;27;20279;-73
2021/10/25 13:06:19;;;;;;;4.20;3.70;;;;;;;10.04;65.36;101430.81;6389757;27;20372;-73
2021/10/25 13:09:23;;;;;;;3.63;3.05;;;;;;;10.02;66.16;101423.88;6389791;27;20468;-73
2021/10/25 13:12:28;;;;;;;3.67;3.30;;;;;;;10.08;66.12;101421.22;6391088;27;20245;-73
2021/10/25 13:15:32;;;;;;;5.50;3.05;;;;;;;10.05;65.34;101432.50;6389644;27;20204;-73
2021/10/25 13:18:38;;;;;;;3.60;3.30;;;;;;;10.22;65.51;101437.69;6389875;27;20188;-72
2021/10/25 13:21:42;;;;;;;7.90;3.30;;;;;;;10.08;66.38;101407.56;6389419;27;20435;-73
2021/10/25 13:24:47;;;;;;;7.85;3.08;;;;;;;9.98;66.25;101414.41;6390598;27;20217;-72
2021/10/25 13:27:52;;;;;;;7.45;3.58;;;;;;;10.02;65.93;101413.81;6389385;27;20565;-73
2021/10/25 13:30:56;;;;;;;3.63;3.28;;;;;;;10.03;66.35;101411.94;6390819;27;20193;-73
2021/10/25 13:34:02;;;;;;;3.60;3.40;;;;;;;10.06;66.40;101412.41;6390702;27;20213;-73
2021/10/25 13:37:07;;;;;;;10.32;3.50;;;;;;;9.79;67.25;101402.31;6390708;27;20186;-72
2021/10/25 13:40:12;;;;;;;3.63;3.33;;;;;;;9.90;66.68;101401.78;6389172;27;20431;-73
2021/10/25 13:43:17;;;;;;;7.65;3.55;;;;;;;9.81;66.64;101405.69;6388574;27;20292;-73
2021/10/25 13:46:21;;;;;;;6.13;3.25;;;;;;;9.64;68.39;101407.03;6389736;27;20254;-73
2021/10/25 13:49:27;;;;;;;5.82;3.75;;;;;;;9.76;68.01;101394.53;6389733;27;20191;-72
2021/10/25 13:52:32;;;;;;;6.93;3.55;;;;;;;9.77;68.48;101396.25;6388136;27;20243;-72
2021/10/25 13:55:36;;;;;;;5.88;3.80;;;;;;;9.72;67.64;101390.53;6389801;27;20188;-72
2021/10/25 13:58:40;;;;;;;4.43;3.65;;;;;;;9.94;66.98;101392.16;6389497;27;20256;-72
2021/10/25 14:01:45;;;;;;;7.20;3.60;;;;;;;9.84;67.63;101386.22;6388436;27;20526;-72
2021/10/25 14:04:53;;;;;;;3.85;3.53;;;;;;;9.68;68.80;101391.97;6388801;27;20249;-72
2021/10/25 14:07:57;;;;;;;4.95;3.58;;;;;;;9.73;68.76;101381.31;6389583;27;20250;-72
2021/10/25 14:11:02;;;;;;;5.45;3.83;;;;;;;9.73;68.56;101394.94;6388950;27;20268;-71
2021/10/25 14:14:17;;;;;;;6.25;4.05;;;;;;;9.56;68.61;101382.66;6389004;27;20181;-72
2021/10/25 14:17:21;;;;;;;4.07;3.60;;;;;;;9.49;70.04;101387.22;6389293;27;20185;-72
2021/10/25 14:20:29;;;;;;;9.32;3.63;;;;;;;9.48;70.21;101380.06;6388865;27;20189;-72
2021/10/25 14:23:33;;;;;;;4.32;3.92;;;;;;;9.57;69.10;101389.81;6387963;27;20182;-72
2021/10/25 14:26:38;;;;;;;3.88;3.58;;;;;;;9.39;70.43;101379.38;6387612;27;20288;-72
2021/10/25 14:29:42;;;;;;;11.55;4.28;;;;;;;9.50;69.77;101383.44;6389084;27;20258;-72
2021/10/25 14:32:46;;;;;;;8.38;3.80;;;;;;;9.39;71.37;101387.56;6388716;27;20251;-72
2021/10/25 14:35:52;;;;;;;8.00;3.92;;;;;;;9.37;71.24;101377.91;6389076;27;20218;-71
2021/10/25 14:39:10;;;;;;;6.97;4.30;;;;;;;9.46;70.27;101382.16;6387777;27;20287;-71
2021/10/25 14:42:20;;;;;;;7.47;3.83;;;;;;;9.52;70.35;101380.53;6373018;27;20198;-72
2021/10/25 14:45:28;;;;;;;12.32;4.00;;;;;;;9.53;70.37;101387.69;6353821;28;20393;-72
2021/10/25 14:48:42;;;;;;;5.80;3.83;;;;;;;9.55;71.01;101385.59;6344127;28;20292;-72
2021/10/25 14:55:23;;;;;;;4.57;3.95;;;;;;;9.50;71.39;101388.88;6284893;28;20315;-72
2021/10/25 14:58:30;;;;;;;4.50;3.80;;;;;;;9.58;71.22;101386.03;6362818;28;20217;-73
2021/10/25 15:01:34;;;;;;;4.07;3.80;;;;;;;9.52;71.86;101386.81;6344523;28;20304;-72
2021/10/25 15:04:39;;;;;;;11.48;3.58;;;;;;;9.60;70.89;101386.69;6361700;28;20182;-74
2021/10/25 15:07:45;;;;;;;4.38;4.07;;;;;;;9.53;71.55;101385.78;6362770;28;20210;-72
2021/10/25 15:10:51;;;;;;;5.47;3.80;;;;;;;9.43;71.46;101387.97;6361482;28;20473;-73
2021/10/25 15:13:56;;;;;;;6.07;3.60;;;;;;;9.43;72.20;101393.44;6362637;28;20228;-72
2021/10/25 15:17:00;;;;;;;4.43;3.80;;;;;;;9.36;72.40;101392.53;6361410;28;20243;-72
2021/10/25 15:20:06;;;;;;;4.65;3.47;;;;;;;9.29;73.02;101397.09;6361474;28;20370;-72
2021/10/25 15:23:12;;;;;;;7.57;3.90;;;;;;;9.13;73.59;101395.47;6362647;28;20189;-74
2021/10/25 15:26:16;;;;;;;4.00;3.70;;;;;;;8.90;75.40;101407.56;6362240;28;20189;-72
2021/10/25 15:29:20;;;;;;;4.32;3.97;;;;;;;8.93;74.94;101399.88;6361775;28;20206;-72
2021/10/25 15:32:28;;;;;;;4.10;3.75;;;;;;;9.01;74.67;101398.91;6362180;28;20254;-72
2021/10/25 15:35:33;;;;;;;5.60;4.40;;;;;;;8.91;75.30;101388.31;6362368;28;20214;-73
2021/10/25 15:38:39;;;;;;;7.57;3.63;;;;;;;8.81;76.23;101388.63;6361833;28;20253;-72
2021/10/25 15:41:43;;;;;;;5.18;3.55;;;;;;;8.73;76.55;101391.47;6361403;28;20271;-73
2021/10/25 15:44:47;;;;;;;5.82;3.80;;;;;;;8.69;77.39;101390.16;6361203;28;20540;-72
2021/10/25 15:47:52;;;;;;;7.80;4.03;;;;;;;8.66;77.53;101395.97;6362596;28;20278;-72
2021/10/25 15:50:56;;;;;;;4.22;3.88;;;;;;;8.50;78.14;101398.91;6361971;28;20182;-72
2021/10/25 15:54:01;;;;;;;4.88;3.47;;;;;;;8.49;78.12;101396.41;6362052;28;20360;-72
2021/10/25 15:57:06;;;;;;;7.95;4.30;;;;;;;8.35;78.85;101398.09;6362206;28;20182;-72
2021/10/25 16:00:13;;;;;;;5.45;4.18;;;;;;;8.39;79.28;101404.84;6362306;28;20186;-73
2021/10/25 16:03:18;;;;;;;5.60;4.40;;;;;;;8.50;78.50;101398.91;6361204;28;20600;-73
2021/10/25 16:06:22;;;;;;;6.35;4.88;;;;;;;8.34;79.68;101396.44;6361057;28;20288;-73